createdAt,value
2023-05-22T00:02:08.556Z,96605.53
2023-05-22T00:04:35.217Z,96599.44
2023-05-22T00:07:01.820Z,96594.94
2023-05-22T00:09:30.736Z,96599.84
2023-05-22T00:11:57.439Z,96591.94
2023-05-22T00:14:24.044Z,96598.06
2023-05-22T00:16:50.705Z,96593.53
2023-05-22T00:19:18.298Z,96596.19
2023-05-22T00:21:45.525Z,96598.75
2023-05-22T00:24:12.588Z,96584.63
2023-05-22T00:26:41.658Z,96586.59
2023-05-22T00:29:11.548Z,96592.34
2023-05-22T00:31:38.221Z,96596.50
2023-05-22T00:34:04.891Z,96602.72
2023-05-22T00:36:34.174Z,96604.09
2023-05-22T00:39:00.958Z,96600.91
2023-05-22T00:41:27.884Z,96601.81
2023-05-22T00:43:56.722Z,96604.09
2023-05-22T00:46:24.593Z,96589.50
2023-05-22T00:48:52.659Z,96596.78
2023-05-22T00:51:24.919Z,96598.19
2023-05-22T00:53:52.206Z,96600.94
2023-05-22T00:56:21.909Z,96597.59
2023-05-22T00:58:50.795Z,96593.19
2023-05-22T01:01:17.889Z,96600.34
2023-05-22T01:03:47.925Z,96607.94
2023-05-22T01:06:16.043Z,96602.91
2023-05-22T01:08:47.418Z,96607.94
2023-05-22T01:11:22.315Z,96606.59
2023-05-22T01:14:08.485Z,96610.53
2023-05-22T01:16:59.802Z,96617.66
2023-05-22T01:19:54.103Z,96616.59
2023-05-22T01:22:58.465Z,96618.13
2023-05-22T01:25:47.543Z,96619.00
2023-05-22T01:28:25.992Z,96626.91
2023-05-22T01:31:17.955Z,96621.91
2023-05-22T01:33:55.003Z,96622.66
2023-05-22T01:36:31.764Z,96619.94
2023-05-22T01:39:01.620Z,96622.06
2023-05-22T01:41:32.525Z,96626.16
2023-05-22T01:44:04.452Z,96626.31
2023-05-22T01:46:31.416Z,96627.97
2023-05-22T01:48:58.778Z,96635.69
2023-05-22T01:51:52.740Z,96625.94
2023-05-22T01:54:22.683Z,96624.88
2023-05-22T01:56:57.520Z,96621.47
2023-05-22T01:59:33.109Z,96627.56
2023-05-22T02:02:07.626Z,96634.66
2023-05-22T02:04:41.361Z,96630.56
2023-05-22T02:07:12.429Z,96631.47
2023-05-22T02:09:41.123Z,96637.94
2023-05-22T02:12:14.208Z,96641.59
2023-05-22T02:14:42.897Z,96634.16
2023-05-22T02:17:12.404Z,96639.75
2023-05-22T02:19:41.262Z,96634.41
2023-05-22T02:22:13.681Z,96640.19
2023-05-22T02:24:47.696Z,96637.16
2023-05-22T02:27:14.560Z,96636.22
2023-05-22T02:29:46.567Z,96632.41
2023-05-22T02:32:13.174Z,96635.75
2023-05-22T02:34:39.813Z,96635.88
2023-05-22T02:37:06.419Z,96638.31
2023-05-22T02:39:32.998Z,96636.38
2023-05-22T02:42:02.146Z,96630.34
2023-05-22T02:44:28.715Z,96627.44
2023-05-22T02:46:57.622Z,96633.81
2023-05-22T02:49:24.274Z,96625.28
2023-05-22T02:51:50.943Z,96634.81
2023-05-22T02:54:19.831Z,96634.88
2023-05-22T02:56:46.514Z,96629.59
2023-05-22T02:59:13.173Z,96636.53
2023-05-22T03:01:39.944Z,96636.34
2023-05-22T03:04:06.899Z,96635.88
2023-05-22T03:06:37.234Z,96631.44
2023-05-22T03:09:06.364Z,96641.91
2023-05-22T03:11:33.059Z,96636.34
2023-05-22T03:14:04.364Z,96630.84
2023-05-22T03:16:36.035Z,96630.09
2023-05-22T03:19:16.356Z,96623.16
2023-05-22T03:21:45.604Z,96627.72
2023-05-22T03:24:14.682Z,96628.00
2023-05-22T03:26:41.921Z,96624.69
2023-05-22T03:29:08.604Z,96628.88
2023-05-22T03:31:39.175Z,96622.03
2023-05-22T03:34:06.247Z,96624.88
2023-05-22T03:36:38.152Z,96627.50
2023-05-22T03:39:05.504Z,96630.03
2023-05-22T03:41:32.115Z,96628.38
2023-05-22T03:44:03.134Z,96631.81
2023-05-22T03:46:29.858Z,96629.94
2023-05-22T03:48:59.045Z,96633.53
2023-05-22T03:51:27.838Z,96620.19
2023-05-22T03:53:54.393Z,96628.53
2023-05-22T03:56:23.215Z,96628.41
2023-05-22T03:58:52.218Z,96629.69
2023-05-22T04:01:18.879Z,96630.59
2023-05-22T04:03:47.941Z,96638.22
2023-05-22T04:06:14.691Z,96637.63
2023-05-22T04:08:41.385Z,96640.50
2023-05-22T04:11:08.388Z,96638.03
2023-05-22T04:13:37.335Z,96643.22
2023-05-22T04:16:04.637Z,96640.75
2023-05-22T04:18:31.355Z,96648.34
2023-05-22T04:21:00.363Z,96643.25
2023-05-22T04:23:26.988Z,96646.44
2023-05-22T04:25:55.821Z,96648.97
2023-05-22T04:28:25.120Z,96642.13
2023-05-22T04:30:52.417Z,96651.19
2023-05-22T04:33:21.925Z,96656.50
2023-05-22T04:35:54.573Z,96652.72
2023-05-22T04:38:26.409Z,96657.28
2023-05-22T04:40:53.024Z,96663.22
2023-05-22T04:43:19.723Z,96664.47
2023-05-22T04:45:48.452Z,96666.06
2023-05-22T04:48:15.453Z,96665.97
2023-05-22T04:50:42.277Z,96671.50
2023-05-22T04:53:08.996Z,96670.47
2023-05-22T04:55:35.664Z,96680.63
2023-05-22T04:58:02.766Z,96677.25
2023-05-22T05:00:34.470Z,96671.22
2023-05-22T05:03:04.106Z,96682.16
2023-05-22T05:05:30.838Z,96684.59
2023-05-22T05:08:02.494Z,96684.00
2023-05-22T05:10:29.119Z,96683.09
2023-05-22T05:13:00.474Z,96684.00
2023-05-22T05:15:27.647Z,96683.22
2023-05-22T05:17:54.276Z,96678.97
2023-05-22T05:20:21.110Z,96685.09
2023-05-22T05:22:47.997Z,96681.19
2023-05-22T05:25:16.888Z,96685.38
2023-05-22T05:27:43.478Z,96685.94
2023-05-22T05:30:10.797Z,96685.50
2023-05-22T05:32:38.851Z,96684.50
2023-05-22T05:35:07.994Z,96682.13
2023-05-22T05:37:34.533Z,96682.97
2023-05-22T05:40:05.019Z,96683.88
2023-05-22T05:42:34.665Z,96683.34
2023-05-22T05:45:01.317Z,96683.59
2023-05-22T05:47:29.761Z,96680.38
2023-05-22T05:49:56.439Z,96683.53
2023-05-22T05:52:24.756Z,96687.44
2023-05-22T05:54:52.032Z,96700.16
2023-05-22T05:57:21.129Z,96691.97
2023-05-22T05:59:50.092Z,96694.53
2023-05-22T06:02:16.887Z,96699.44
2023-05-22T06:04:43.533Z,96695.91
2023-05-22T06:07:12.540Z,96690.81
2023-05-22T06:09:41.498Z,96688.00
2023-05-22T06:12:12.474Z,96692.66
2023-05-22T06:14:41.939Z,96689.94
2023-05-22T06:17:13.608Z,96682.84
2023-05-22T06:19:44.945Z,96687.25
2023-05-22T06:22:11.661Z,96693.22
2023-05-22T06:24:38.252Z,96686.06
2023-05-22T06:27:05.625Z,96685.97
2023-05-22T06:29:32.210Z,96688.38
2023-05-22T06:31:58.886Z,96683.53
2023-05-22T06:34:25.878Z,96678.06
2023-05-22T06:36:57.307Z,96678.72
2023-05-22T06:39:23.985Z,96681.16
2023-05-22T06:41:52.781Z,96686.78
2023-05-22T06:44:20.309Z,96680.59
2023-05-22T06:46:46.967Z,96680.00
2023-05-22T06:49:15.949Z,96689.28
2023-05-22T06:51:43.224Z,96689.72
2023-05-22T06:54:12.430Z,96681.97
2023-05-22T06:56:39.648Z,96688.84
2023-05-22T06:59:06.680Z,96688.41
2023-05-22T07:01:33.596Z,96694.69
2023-05-22T07:04:01.439Z,96689.97
2023-05-22T07:06:28.308Z,96694.91
2023-05-22T07:08:57.726Z,96695.19
2023-05-22T07:11:26.558Z,96697.41
2023-05-22T07:13:55.353Z,96705.13
2023-05-22T07:16:23.126Z,96699.19
2023-05-22T07:18:49.958Z,96702.88
2023-05-22T07:21:16.547Z,96700.50
2023-05-22T07:23:43.174Z,96696.88
2023-05-22T07:26:10.317Z,96683.84
2023-05-22T07:28:36.934Z,96693.06
2023-05-22T07:31:05.773Z,96696.47
2023-05-22T07:33:32.614Z,96691.78
2023-05-22T07:35:59.291Z,96686.69
2023-05-22T07:38:30.481Z,96689.13
2023-05-22T07:40:57.306Z,96687.63
2023-05-22T07:43:23.970Z,96683.97
2023-05-22T07:45:51.362Z,96685.75
2023-05-22T07:48:20.345Z,96692.56
2023-05-22T07:50:47.822Z,96688.34
2023-05-22T07:53:17.622Z,96680.63
2023-05-22T07:55:46.574Z,96680.19
2023-05-22T07:58:16.099Z,96680.31
2023-05-22T08:00:45.223Z,96680.34
2023-05-22T08:03:12.352Z,96683.41
2023-05-22T08:05:41.533Z,96681.53
2023-05-22T08:08:10.381Z,96677.72
2023-05-22T08:10:47.044Z,96678.06
2023-05-22T08:13:19.425Z,96680.59
2023-05-22T08:15:46.154Z,96672.16
2023-05-22T08:18:15.312Z,96671.66
2023-05-22T08:20:42.007Z,96660.88
2023-05-22T08:23:13.389Z,96671.81
2023-05-22T08:25:43.925Z,96661.69
2023-05-22T08:28:10.541Z,96662.66
2023-05-22T08:30:39.633Z,96663.66
2023-05-22T08:33:08.866Z,96656.59
2023-05-22T08:35:37.915Z,96660.44
2023-05-22T08:38:04.727Z,96656.66
2023-05-22T08:40:39.346Z,96648.31
2023-05-22T08:43:08.642Z,96651.84
2023-05-22T08:45:35.563Z,96644.31
2023-05-22T08:48:06.507Z,96641.44
2023-05-22T08:50:40.004Z,96646.84
2023-05-22T08:53:08.430Z,96643.06
2023-05-22T08:55:35.295Z,96640.75
2023-05-22T08:58:02.636Z,96641.19
2023-05-22T09:00:31.450Z,96639.75
2023-05-22T09:02:58.392Z,96642.25
2023-05-22T09:05:30.536Z,96645.25
2023-05-22T09:08:08.488Z,96639.50
2023-05-22T09:10:43.120Z,96643.06
2023-05-22T09:13:11.257Z,96640.00
2023-05-22T09:15:40.992Z,96642.38
2023-05-22T09:18:09.746Z,96634.47
2023-05-22T09:20:41.749Z,96631.81
2023-05-22T09:23:19.888Z,96639.66
2023-05-22T09:25:46.654Z,96635.44
2023-05-22T09:28:13.362Z,96627.72
2023-05-22T09:30:42.922Z,96629.06
2023-05-22T09:33:13.050Z,96629.81
2023-05-22T09:35:39.850Z,96620.13
2023-05-22T09:38:10.187Z,96623.25
2023-05-22T09:40:39.550Z,96623.06
2023-05-22T09:43:17.390Z,96604.88
2023-05-22T09:45:46.445Z,96612.25
2023-05-22T09:48:22.586Z,96617.69
2023-05-22T09:50:53.588Z,96616.06
2023-05-22T09:53:28.143Z,96609.47
2023-05-22T09:56:00.107Z,96614.59
2023-05-22T09:58:30.891Z,96605.16
2023-05-22T10:00:58.264Z,96612.63
2023-05-22T10:03:27.478Z,96614.25
2023-05-22T10:05:58.840Z,96610.59
2023-05-22T10:08:28.477Z,96610.72
2023-05-22T10:10:55.105Z,96607.00
2023-05-22T10:13:22.088Z,96612.06
2023-05-22T10:15:51.971Z,96610.50
2023-05-22T10:18:18.890Z,96608.97
2023-05-22T10:20:48.386Z,96609.13
2023-05-22T10:23:18.920Z,96604.44
2023-05-22T10:25:46.268Z,96594.50
2023-05-22T10:28:21.665Z,96590.53
2023-05-22T10:30:56.436Z,96590.53
2023-05-22T10:33:35.324Z,96591.13
2023-05-22T10:36:04.263Z,96588.72
2023-05-22T10:38:36.228Z,96583.50
2023-05-22T10:41:07.227Z,96584.09
2023-05-22T10:43:39.484Z,96583.25
2023-05-22T10:46:07.423Z,96577.63
2023-05-22T10:48:39.276Z,96566.16
2023-05-22T10:51:14.807Z,96556.28
2023-05-22T10:53:45.859Z,96561.53
2023-05-22T10:56:18.374Z,96555.41
2023-05-22T10:58:55.852Z,96563.00
2023-05-22T11:01:28.443Z,96555.78
2023-05-22T11:03:58.642Z,96549.06
2023-05-22T11:06:42.165Z,96550.19
2023-05-22T11:09:31.000Z,96547.41
2023-05-22T11:12:20.571Z,96540.09
2023-05-22T11:14:56.431Z,96542.19
2023-05-22T11:17:45.016Z,96540.13
2023-05-22T11:20:29.314Z,96534.09
2023-05-22T11:22:57.133Z,96535.56
2023-05-22T11:25:27.015Z,96538.47
2023-05-22T11:27:58.487Z,96537.28
2023-05-22T11:30:26.919Z,96530.13
2023-05-22T11:32:53.832Z,96527.78
2023-05-22T11:35:24.570Z,96525.75
2023-05-22T11:37:53.789Z,96522.59
2023-05-22T11:40:27.221Z,96520.13
2023-05-22T11:42:54.141Z,96524.28
2023-05-22T11:45:21.571Z,96527.94
2023-05-22T11:47:50.758Z,96528.72
2023-05-22T11:50:33.610Z,96523.16
2023-05-22T11:53:09.891Z,96536.88
2023-05-22T11:55:36.537Z,96531.59
2023-05-22T11:58:03.224Z,96538.31
2023-05-22T12:00:31.665Z,96528.91
2023-05-22T12:02:58.675Z,96530.00
2023-05-22T12:05:27.969Z,96530.78
2023-05-22T12:07:57.377Z,96525.66
2023-05-22T12:10:26.051Z,96534.63
2023-05-22T12:12:52.835Z,96525.50
2023-05-22T12:15:21.663Z,96520.47
2023-05-22T12:17:58.206Z,96528.28
2023-05-22T12:20:30.401Z,96529.53
2023-05-22T12:22:59.896Z,96528.91
2023-05-22T12:25:35.978Z,96530.94
2023-05-22T12:28:07.962Z,96536.66
2023-05-22T12:30:43.631Z,96536.56
2023-05-22T12:33:14.996Z,96530.34
2023-05-22T12:35:44.108Z,96525.69
2023-05-22T12:38:15.608Z,96524.69
2023-05-22T12:40:42.681Z,96527.41
2023-05-22T12:43:09.247Z,96526.91
2023-05-22T12:45:41.316Z,96525.44
2023-05-22T12:48:08.805Z,96527.38
2023-05-22T12:50:36.226Z,96524.81
2023-05-22T12:53:05.215Z,96519.88
2023-05-22T12:55:38.142Z,96525.94
2023-05-22T12:58:07.262Z,96526.03
2023-05-22T13:00:34.427Z,96524.44
2023-05-22T13:03:03.912Z,96529.22
2023-05-22T13:05:32.832Z,96533.13
2023-05-22T13:07:59.544Z,96521.31
2023-05-22T13:10:26.212Z,96523.78
2023-05-22T13:12:57.499Z,96521.13
2023-05-22T13:15:24.268Z,96516.94
2023-05-22T13:17:51.056Z,96521.16
2023-05-22T13:20:20.087Z,96515.38
2023-05-22T13:22:46.909Z,96502.72
2023-05-22T13:25:13.550Z,96508.38
2023-05-22T13:27:40.563Z,96506.69
2023-05-22T13:30:07.693Z,96507.78
2023-05-22T13:35:01.724Z,96501.59
2023-05-22T13:37:33.716Z,96489.88
2023-05-22T13:40:00.609Z,96483.69
2023-05-22T13:42:27.245Z,96480.66
2023-05-22T13:44:56.116Z,96484.88
2023-05-22T13:47:23.287Z,96485.81
2023-05-22T13:49:50.051Z,96473.75
2023-05-22T13:52:18.869Z,96482.78
2023-05-22T13:54:50.267Z,96471.88
2023-05-22T13:57:16.849Z,96474.16
2023-05-22T13:59:43.477Z,96472.78
2023-05-22T14:02:10.105Z,96470.47
2023-05-22T14:04:36.770Z,96473.44
2023-05-22T14:07:08.088Z,96473.53
2023-05-22T14:09:36.852Z,96466.72
2023-05-22T14:12:08.318Z,96461.81
2023-05-22T14:14:39.422Z,96468.22
2023-05-22T14:17:08.522Z,96467.19
2023-05-22T14:19:38.985Z,96463.19
2023-05-22T14:22:05.646Z,96465.72
2023-05-22T14:24:32.213Z,96459.25
2023-05-22T14:26:58.895Z,96447.44
2023-05-22T14:29:28.331Z,96442.88
2023-05-22T14:32:01.401Z,96443.47
2023-05-22T14:34:30.625Z,96445.13
2023-05-22T14:37:01.715Z,96441.91
2023-05-22T14:39:28.307Z,96439.75
2023-05-22T14:41:54.950Z,96434.03
2023-05-22T14:44:26.356Z,96439.06
2023-05-22T14:46:56.006Z,96443.41
2023-05-22T14:49:22.692Z,96438.59
2023-05-22T14:51:49.446Z,96438.59
2023-05-22T14:54:18.982Z,96441.31
2023-05-22T14:56:46.103Z,96437.56
2023-05-22T14:59:12.778Z,96438.59
2023-05-22T15:01:41.750Z,96439.53
2023-05-22T15:04:09.046Z,96442.16
2023-05-22T15:06:40.534Z,96437.50
2023-05-22T15:09:09.423Z,96440.63
2023-05-22T15:11:38.290Z,96439.47
2023-05-22T15:14:04.892Z,96446.31
2023-05-22T15:16:36.064Z,96449.25
2023-05-22T15:19:02.783Z,96453.72
2023-05-22T15:21:32.694Z,96451.56
2023-05-22T15:24:01.447Z,96457.28
2023-05-22T15:26:32.888Z,96447.00
2023-05-22T15:29:01.325Z,96446.06
2023-05-22T15:31:30.319Z,96449.88
2023-05-22T15:33:57.306Z,96442.81
2023-05-22T15:36:27.640Z,96449.97
2023-05-22T15:38:54.300Z,96444.28
2023-05-22T15:41:21.863Z,96437.13
2023-05-22T15:43:52.274Z,96444.94
2023-05-22T15:46:19.047Z,96438.44
2023-05-22T15:48:45.962Z,96441.81
2023-05-22T15:51:15.398Z,96439.00
2023-05-22T15:53:50.894Z,96435.19
2023-05-22T15:56:17.575Z,96445.69
2023-05-22T15:58:46.552Z,96441.41
2023-05-22T16:01:13.505Z,96443.66
2023-05-22T16:03:40.412Z,96426.44
2023-05-22T16:06:09.386Z,96432.84
2023-05-22T16:08:35.953Z,96423.88
2023-05-22T16:11:05.029Z,96423.84
2023-05-22T16:13:34.247Z,96420.03
2023-05-22T16:16:03.701Z,96432.78
2023-05-22T16:18:30.515Z,96433.78
2023-05-22T16:20:57.088Z,96430.66
2023-05-22T16:23:28.290Z,96426.31
2023-05-22T16:25:59.518Z,96423.19
2023-05-22T16:28:26.317Z,96429.75
2023-05-22T16:30:52.925Z,96427.50
2023-05-22T16:33:21.760Z,96417.66
2023-05-22T16:35:48.314Z,96428.47
2023-05-22T16:38:14.965Z,96426.13
2023-05-22T16:40:41.655Z,96434.13
2023-05-22T16:43:12.637Z,96428.81
2023-05-22T16:45:41.207Z,96431.91
2023-05-22T16:48:08.456Z,96432.31
2023-05-22T16:50:35.079Z,96432.75
2023-05-22T16:53:01.684Z,96444.47
2023-05-22T16:55:28.233Z,96438.91
2023-05-22T16:57:56.852Z,96449.88
2023-05-22T17:00:28.155Z,96445.66
2023-05-22T17:02:55.851Z,96451.41
2023-05-22T17:05:22.617Z,96460.66
2023-05-22T17:07:49.712Z,96464.59
2023-05-22T17:10:16.415Z,96464.50
2023-05-22T17:12:43.084Z,96455.88
2023-05-22T17:15:12.264Z,96465.75
2023-05-22T17:17:41.192Z,96472.28
2023-05-22T17:20:11.465Z,96471.34
2023-05-22T17:22:41.231Z,96479.75
2023-05-22T17:25:08.349Z,96480.38
2023-05-22T17:27:37.182Z,96474.69
2023-05-22T17:30:09.577Z,96475.09
2023-05-22T17:32:38.580Z,96480.59
2023-05-22T17:35:08.278Z,96483.75
2023-05-22T17:37:37.023Z,96476.19
2023-05-22T17:40:04.837Z,96482.09
2023-05-22T17:42:31.433Z,96475.78
2023-05-22T17:44:58.055Z,96495.59
2023-05-22T17:47:26.908Z,96486.41
2023-05-22T17:49:53.575Z,96485.25
2023-05-22T17:52:22.622Z,96486.75
2023-05-22T17:54:50.011Z,96480.38
2023-05-22T17:57:16.663Z,96487.19
2023-05-22T17:59:46.131Z,96500.56
2023-05-22T18:02:12.759Z,96501.34
2023-05-22T18:04:41.803Z,96494.63
2023-05-22T18:07:08.431Z,96498.13
2023-05-22T18:09:35.081Z,96501.69
2023-05-22T18:12:04.354Z,96503.50
2023-05-22T18:14:31.028Z,96505.56
2023-05-22T18:16:59.888Z,96509.31
2023-05-22T18:19:30.462Z,96509.56
2023-05-22T18:21:57.276Z,96513.13
2023-05-22T18:24:25.110Z,96510.91
2023-05-22T18:26:52.081Z,96519.44
2023-05-22T18:29:21.026Z,96520.97
2023-05-22T18:31:50.002Z,96532.00
2023-05-22T18:34:16.680Z,96539.03
2023-05-22T18:36:43.307Z,96523.72
2023-05-22T18:39:10.984Z,96522.75
2023-05-22T18:41:39.829Z,96524.25
2023-05-22T18:44:07.694Z,96528.28
2023-05-22T18:46:36.877Z,96524.75
2023-05-22T18:49:06.332Z,96516.25
2023-05-22T18:51:33.415Z,96522.78
2023-05-22T18:54:00.004Z,96519.53
2023-05-22T18:56:27.370Z,96527.03
2023-05-22T18:58:56.986Z,96530.06
2023-05-22T19:01:23.684Z,96521.25
2023-05-22T19:03:50.298Z,96523.22
2023-05-22T19:06:18.893Z,96530.00
2023-05-22T19:08:47.778Z,96529.75
2023-05-22T19:11:16.485Z,96539.00
2023-05-22T19:13:43.496Z,96538.50
2023-05-22T19:16:10.519Z,96555.78
2023-05-22T19:18:37.582Z,96560.81
2023-05-22T19:21:07.317Z,96555.94
2023-05-22T19:23:34.042Z,96554.44
2023-05-22T19:26:03.696Z,96563.34
2023-05-22T19:28:32.305Z,96568.50
2023-05-22T19:31:03.230Z,96579.03
2023-05-22T19:33:32.353Z,96582.84
2023-05-22T19:36:01.980Z,96588.88
2023-05-22T19:38:31.240Z,96582.81
2023-05-22T19:41:04.912Z,96582.22
2023-05-22T19:43:32.042Z,96582.22
2023-05-22T19:46:00.953Z,96584.50
2023-05-22T19:48:31.555Z,96589.97
2023-05-22T19:50:58.127Z,96585.91
2023-05-22T19:53:27.898Z,96590.59
2023-05-22T19:55:57.365Z,96596.00
2023-05-22T19:58:28.771Z,96596.97
2023-05-22T20:00:57.571Z,96606.75
2023-05-22T20:03:28.860Z,96601.41
2023-05-22T20:05:57.738Z,96609.03
2023-05-22T20:08:26.914Z,96611.59
2023-05-22T20:10:55.952Z,96615.00
2023-05-22T20:13:24.939Z,96614.41
2023-05-22T20:15:53.499Z,96613.72
2023-05-22T20:18:23.061Z,96612.75
2023-05-22T20:20:51.926Z,96619.84
2023-05-22T20:23:20.677Z,96627.69
2023-05-22T20:25:49.599Z,96627.81
2023-05-22T20:28:18.381Z,96634.53
2023-05-22T20:30:47.260Z,96648.25
2023-05-22T20:33:14.434Z,96653.97
2023-05-22T20:35:42.231Z,96656.50
2023-05-22T20:38:09.953Z,96656.41
2023-05-22T20:40:42.374Z,96661.88
2023-05-22T20:43:13.941Z,96665.50
2023-05-22T20:45:46.755Z,96663.72
2023-05-22T20:48:16.686Z,96675.88
2023-05-22T20:50:43.475Z,96679.34
2023-05-22T20:53:12.811Z,96684.97
2023-05-22T20:55:42.615Z,96687.44
2023-05-22T20:58:09.656Z,96688.00
2023-05-22T21:00:41.585Z,96691.22
2023-05-22T21:03:11.785Z,96692.59
2023-05-22T21:05:38.654Z,96701.47
2023-05-22T21:08:05.411Z,96703.59
2023-05-22T21:10:32.080Z,96710.06
2023-05-22T21:13:03.431Z,96714.44
2023-05-22T21:15:29.994Z,96704.28
2023-05-22T21:17:56.621Z,96705.44
2023-05-22T21:20:26.349Z,96707.22
2023-05-22T21:22:55.168Z,96708.66
2023-05-22T21:25:24.276Z,96706.38
2023-05-22T21:27:50.984Z,96707.03
2023-05-22T21:30:17.659Z,96710.38
2023-05-22T21:32:44.314Z,96711.88
2023-05-22T21:35:13.409Z,96715.09
2023-05-22T21:37:42.294Z,96714.44
2023-05-22T21:40:16.768Z,96720.53
2023-05-22T21:42:46.329Z,96725.91
2023-05-22T21:45:14.126Z,96730.34
2023-05-22T21:47:40.852Z,96730.84
2023-05-22T21:50:10.120Z,96735.09
2023-05-22T21:52:36.755Z,96741.16
2023-05-22T21:55:08.663Z,96735.19
2023-05-22T21:57:35.524Z,96740.78
2023-05-22T22:00:05.045Z,96747.31
2023-05-22T22:02:31.822Z,96747.97
2023-05-22T22:05:01.039Z,96747.88
2023-05-22T22:07:32.792Z,96748.41
2023-05-22T22:09:59.632Z,96748.69
2023-05-22T22:12:26.646Z,96757.81
2023-05-22T22:14:55.646Z,96757.50
2023-05-22T22:17:24.775Z,96756.16
2023-05-22T22:19:57.196Z,96759.00
2023-05-22T22:22:24.872Z,96752.97
2023-05-22T22:24:53.929Z,96754.25
2023-05-22T22:27:20.563Z,96756.34
2023-05-22T22:29:49.293Z,96744.91
2023-05-22T22:32:15.997Z,96755.88
2023-05-22T22:34:43.658Z,96747.34
2023-05-22T22:37:10.303Z,96738.25
2023-05-22T22:39:36.999Z,96738.81
2023-05-22T22:42:06.435Z,96738.50
2023-05-22T22:44:35.568Z,96736.34
2023-05-22T22:47:02.284Z,96732.66
2023-05-22T22:49:28.853Z,96741.72
2023-05-22T22:51:56.589Z,96746.75
2023-05-22T22:54:23.999Z,96744.72
2023-05-22T22:56:53.030Z,96758.78
2023-05-22T22:59:19.581Z,96761.53
2023-05-22T23:01:51.412Z,96764.41
2023-05-22T23:04:20.491Z,96762.97
2023-05-22T23:06:49.542Z,96757.94
2023-05-22T23:09:18.355Z,96757.34
2023-05-22T23:11:47.087Z,96755.59
2023-05-22T23:14:17.836Z,96753.44
2023-05-22T23:16:44.442Z,96753.53
2023-05-22T23:19:13.801Z,96754.19
2023-05-22T23:21:42.739Z,96750.53
2023-05-22T23:24:12.385Z,96752.78
2023-05-22T23:26:38.938Z,96746.53
2023-05-22T23:29:08.282Z,96746.06
2023-05-22T23:31:40.409Z,96743.94
2023-05-22T23:34:07.178Z,96745.91
2023-05-22T23:36:36.867Z,96742.88
2023-05-22T23:39:03.652Z,96742.47
2023-05-22T23:41:30.251Z,96741.28
2023-05-22T23:43:56.857Z,96744.81
2023-05-22T23:46:24.418Z,96740.63
2023-05-22T23:48:51.649Z,96735.22
2023-05-22T23:51:18.820Z,96725.72
2023-05-22T23:53:45.416Z,96723.38
2023-05-22T23:56:14.826Z,96722.16
2023-05-22T23:58:41.413Z,96723.66
